Portada
METAR-TAF:

METAR-TAF

Aeropuertos :

Aeropuerto Internacional de Tan Son Nhat

Ciudad Ho Chi Minh, Vietnam

latitud: 10-49N, longitud: 106-40E, altitud: 19 m

Observación

El informe se hizo hace 30 minutos, a las 03:00 UTC
Viento 1 kt con dirección variable
Temperatura 32°C
Humedad 67%
Presión 1012 hPa
Visibilidad 10 km o más
Nubes dispersas a una altura de 2000 ft

METAR: VVTS 220300Z VRB01KT 9999 SCT020 32/25 Q1012 NOSIG

Hora: 10:30 (03:30 UTC)

Pronóstico

El informe se hizo hace 4 horas y 30 minutos, a las 23:00 UTC
Pronóstico válido del 22 a las 00 UTC al 23 a las 06 UTC
Viento 8 kt del este
Visibilidad 10 km o más
Nubes dispersas a una altura de 1500 ft
Temporalmente
del 22 a las 08 UTC al 22 a las 12 UTC
Visibilidad: 3000 m
Cielo nuboso a una altura de 1300 ft
Nubes dispersas a una altura de 1500 ft, Cumulonimbus.
tormenta, lluvia

TAF: VVTS 212300Z 2200/2306 10008KT 9999 SCT015 TEMPO 2208/2212 3000 TSRA BKN013 SCT015CB

Observaciones y pronósticos meteorológicos de más de 4000 aeropuertos (mensajes METAR y TAF).

Los puntos amarillos y rojos representan las estaciones disponibles.

Ponga el ratón en el punto deseado para ver el nombre de la estación.

Haga clic para ver las observaciones y los pronósticos meteorológicos.

Para cambiar el mapa : haga clic en los botones verdes con una cruz de color negro para hacer un zoom, en el botón verde con un guión para alejar o en las flechas verdes para mapas adyacentes.


METAR-TAF: